Time;durP1;ratioP1;P1;durP2;ratioP2;P2;SDS_P1;SDS_P2;PMS_P1;PMS_P2;Temp;Humidity;BMP_temperature;BMP_pressure;BME280_temperature;BME280_humidity;BME280_pressure;Samples;Min_cycle;Max_cycle;Signal;HPM_P1;HPM_P2
2022/07/14 00:01:17;;;;;;;5.93;3.67;;;30.30;41.90;;;;;;7308471;19;20082;-79
2022/07/14 00:03:51;;;;;;;9.23;3.85;;;30.40;41.90;;;;;;7331268;19;20011;-79
2022/07/14 00:06:20;;;;;;;5.28;3.63;;;30.40;41.80;;;;;;7310376;19;20022;-80
2022/07/14 00:08:48;;;;;;;8.02;4.07;;;30.40;42.00;;;;;;7333559;19;20054;-79
2022/07/14 00:11:17;;;;;;;8.90;3.33;;;30.30;42.20;;;;;;7331298;19;20023;-79
2022/07/14 00:13:46;;;;;;;6.80;3.60;;;30.30;42.30;;;;;;7382644;19;20054;-79
2022/07/14 00:16:15;;;;;;;4.60;3.33;;;30.30;42.40;;;;;;7339782;19;20100;-79
2022/07/14 00:18:45;;;;;;;5.32;3.50;;;30.40;42.60;;;;;;7337378;19;20027;-79
2022/07/14 00:21:18;;;;;;;4.07;3.53;;;30.30;42.60;;;;;;7313186;19;20029;-79
2022/07/14 00:23:48;;;;;;;5.55;3.05;;;30.30;42.70;;;;;;7331325;19;20015;-79
2022/07/14 00:26:17;;;;;;;3.90;3.50;;;30.30;42.80;;;;;;7308667;19;20118;-79
2022/07/14 00:28:45;;;;;;;9.43;3.50;;;30.40;42.80;;;;;;7353758;19;20098;-78
2022/07/14 00:31:15;;;;;;;10.15;3.88;;;30.30;42.50;;;;;;7309144;19;20014;-79
2022/07/14 00:33:43;;;;;;;4.75;3.60;;;30.30;42.50;;;;;;7332858;19;20015;-78
2022/07/14 00:36:12;;;;;;;7.60;3.97;;;30.30;42.50;;;;;;7310641;19;20345;-79
2022/07/14 00:38:44;;;;;;;6.40;4.38;;;30.30;42.30;;;;;;7336579;19;20094;-78
2022/07/14 00:41:13;;;;;;;8.88;4.10;;;30.30;42.20;;;;;;7310076;19;20341;-79
2022/07/14 00:43:41;;;;;;;17.20;4.32;;;30.20;42.30;;;;;;7351897;19;20081;-79
2022/07/14 00:46:10;;;;;;;8.55;3.90;;;30.10;42.40;;;;;;7308975;19;20021;-79
2022/07/14 00:48:39;;;;;;;7.68;4.10;;;30.10;42.70;;;;;;7330270;19;20015;-79
2022/07/14 00:51:08;;;;;;;10.20;4.45;;;30.10;43.00;;;;;;7321584;19;20090;-79
2022/07/14 00:53:37;;;;;;;5.68;3.72;;;30.10;43.10;;;;;;7330832;19;20023;-78
2022/07/14 00:56:09;;;;;;;5.93;4.20;;;30.10;42.90;;;;;;7328746;19;20014;-79
2022/07/14 00:58:37;;;;;;;7.40;4.03;;;30.20;43.00;;;;;;7328945;19;20494;-79
2022/07/14 01:01:06;;;;;;;6.90;4.13;;;30.20;42.90;;;;;;7315074;19;20018;-78
2022/07/14 01:03:35;;;;;;;6.88;4.68;;;30.20;42.90;;;;;;7332257;19;20190;-79
2022/07/14 01:06:04;;;;;;;6.97;4.93;;;30.20;42.70;;;;;;7309216;19;20022;-79
2022/07/14 01:08:33;;;;;;;8.40;5.10;;;30.20;42.80;;;;;;7335451;19;20032;-79
2022/07/14 01:11:02;;;;;;;8.45;4.47;;;30.20;42.90;;;;;;7330774;19;20101;-79
2022/07/14 01:13:33;;;;;;;7.88;4.43;;;30.10;42.80;;;;;;7330181;19;20473;-79
2022/07/14 01:16:02;;;;;;;7.28;3.50;;;30.10;43.10;;;;;;7306979;19;20022;-79
2022/07/14 01:18:31;;;;;;;6.32;3.63;;;30.10;43.40;;;;;;7327549;19;20026;-79
2022/07/14 01:21:00;;;;;;;5.60;3.47;;;30.00;43.40;;;;;;7306944;19;20090;-79
2022/07/14 01:23:31;;;;;;;7.45;4.03;;;29.90;43.00;;;;;;7336245;19;20428;-79
2022/07/14 01:26:00;;;;;;;6.38;3.78;;;29.90;43.70;;;;;;7329238;19;20069;-79
2022/07/14 01:28:29;;;;;;;6.65;4.40;;;29.80;43.10;;;;;;7328479;19;20014;-79
2022/07/14 01:30:57;;;;;;;10.05;3.85;;;29.80;43.50;;;;;;7327148;19;20028;-79
2022/07/14 01:33:26;;;;;;;7.00;4.00;;;29.70;43.90;;;;;;7306437;19;20014;-79
2022/07/14 01:35:55;;;;;;;8.32;3.80;;;29.60;43.20;;;;;;7341379;19;20108;-79
2022/07/14 01:38:24;;;;;;;9.20;3.80;;;29.60;43.20;;;;;;7306238;19;26052;-78
2022/07/14 01:40:55;;;;;;;9.60;3.78;;;29.50;43.20;;;;;;7349640;19;20030;-79
2022/07/14 01:43:24;;;;;;;7.72;3.92;;;29.40;43.10;;;;;;7305539;19;20098;-79
2022/07/14 01:45:53;;;;;;;6.53;3.80;;;29.50;43.60;;;;;;7328668;19;20086;-79
2022/07/14 01:48:21;;;;;;;7.82;4.05;;;29.50;43.80;;;;;;7308387;19;20548;-79
2022/07/14 01:50:54;;;;;;;8.73;4.47;;;29.50;43.60;;;;;;7326647;19;20056;-78
2022/07/14 01:53:23;;;;;;;6.28;3.88;;;29.50;43.50;;;;;;7306433;19;20019;-78
2022/07/14 01:55:51;;;;;;;5.63;3.65;;;29.40;43.30;;;;;;7347848;19;20035;-78
2022/07/14 01:58:23;;;;;;;6.32;3.80;;;29.40;43.50;;;;;;7305847;19;20090;-79
2022/07/14 02:03:32;;;;;;;6.75;3.92;;;29.50;43.60;;;;;;7306909;19;20130;-78
2022/07/14 02:06:01;;;;;;;7.00;3.85;;;29.50;43.10;;;;;;7305553;19;20018;-78
2022/07/14 02:08:31;;;;;;;7.80;3.85;;;29.40;43.10;;;;;;7325190;19;20431;-78
2022/07/14 02:13:43;;;;;;;5.45;3.75;;;29.40;42.60;;;;;;7326346;19;20074;-79
2022/07/14 02:16:12;;;;;;;10.82;4.28;;;29.40;42.90;;;;;;7324143;19;20113;-80
2022/07/14 02:18:41;;;;;;;7.18;4.05;;;29.50;42.70;;;;;;7327868;19;20532;-79
2022/07/14 02:21:13;;;;;;;6.32;3.58;;;29.50;43.40;;;;;;7305012;19;20019;-79
2022/07/14 02:23:42;;;;;;;4.80;3.50;;;29.50;42.30;;;;;;7326545;19;20011;-79
2022/07/14 02:26:13;;;;;;;7.70;3.42;;;29.50;42.20;;;;;;7309260;19;20028;-80
2022/07/14 02:28:45;;;;;;;3.95;3.13;;;29.40;42.00;;;;;;7348829;19;20086;-79
2022/07/14 02:31:13;;;;;;;7.88;3.70;;;29.40;41.60;;;;;;7302906;19;20032;-79
2022/07/14 02:33:42;;;;;;;5.70;3.88;;;29.40;42.00;;;;;;7326341;19;20015;-80
2022/07/14 02:36:11;;;;;;;5.35;3.70;;;29.40;42.10;;;;;;7312948;19;20019;-80
2022/07/14 02:38:40;;;;;;;7.70;3.95;;;29.40;42.10;;;;;;7327593;19;20171;-79
2022/07/14 02:41:09;;;;;;;7.47;3.40;;;29.40;42.20;;;;;;7328164;19;20437;-80
2022/07/14 02:43:38;;;;;;;7.28;3.88;;;29.40;42.20;;;;;;7326679;19;20109;-80
2022/07/14 02:46:13;;;;;;;8.57;3.47;;;29.40;42.00;;;;;;7304336;19;20018;-80
2022/07/14 02:48:42;;;;;;;5.78;3.28;;;29.30;42.00;;;;;;7327424;19;20015;-80
2022/07/14 02:51:12;;;;;;;3.75;2.97;;;29.30;42.20;;;;;;7313129;19;20022;-80
2022/07/14 02:53:41;;;;;;;6.22;3.00;;;29.20;42.00;;;;;;7344823;19;20031;-79
2022/07/14 02:56:10;;;;;;;6.55;3.50;;;29.30;42.10;;;;;;7323096;19;20094;-79
2022/07/14 02:58:39;;;;;;;6.50;3.33;;;29.20;41.90;;;;;;7347823;19;20021;-80
2022/07/14 03:01:12;;;;;;;4.60;3.17;;;29.20;42.00;;;;;;7321629;19;20019;-80
2022/07/14 03:03:40;;;;;;;5.57;3.30;;;29.20;41.90;;;;;;7327550;19;20097;-80
2022/07/14 03:06:11;;;;;;;12.27;2.90;;;29.20;42.10;;;;;;7303816;19;20090;-79
2022/07/14 03:08:40;;;;;;;5.53;2.78;;;29.20;42.00;;;;;;7328012;19;20024;-80
2022/07/14 03:11:09;;;;;;;5.30;2.90;;;29.20;42.00;;;;;;7324533;19;20455;-80
2022/07/14 03:13:38;;;;;;;5.57;2.90;;;29.10;42.20;;;;;;7327034;19;20093;-79
2022/07/14 03:16:12;;;;;;;7.53;2.90;;;29.10;42.20;;;;;;7306591;19;20667;-80
2022/07/14 03:18:41;;;;;;;6.60;2.85;;;29.10;42.30;;;;;;7328990;19;20082;-80
2022/07/14 03:21:11;;;;;;;5.78;2.90;;;29.10;42.40;;;;;;7313917;19;20025;-79
2022/07/14 03:23:41;;;;;;;4.30;2.70;;;29.10;42.40;;;;;;7325358;19;20472;-80
2022/07/14 03:26:09;;;;;;;2.55;2.28;;;29.10;42.40;;;;;;7321815;19;20010;-79
2022/07/14 03:28:38;;;;;;;7.88;2.80;;;29.10;42.40;;;;;;7346362;19;20019;-79
2022/07/14 03:31:10;;;;;;;4.30;2.70;;;29.00;42.50;;;;;;7301761;19;20119;-80
2022/07/14 03:33:39;;;;;;;6.53;2.92;;;29.00;42.50;;;;;;7325920;19;20576;-80
2022/07/14 03:36:08;;;;;;;4.68;2.90;;;28.90;42.60;;;;;;7306620;19;20434;-80
2022/07/14 03:38:36;;;;;;;3.53;2.83;;;28.90;42.90;;;;;;7340978;19;20023;-80
2022/07/14 03:41:05;;;;;;;5.18;2.90;;;28.90;43.00;;;;;;7360238;19;20034;-80
2022/07/14 03:43:34;;;;;;;5.15;3.00;;;28.80;42.90;;;;;;7342821;19;20022;-80
2022/07/14 03:46:03;;;;;;;4.90;2.90;;;28.70;43.00;;;;;;7321837;19;20450;-80
2022/07/14 03:48:35;;;;;;;7.63;2.90;;;28.70;43.10;;;;;;7334419;19;20021;-80
2022/07/14 03:51:04;;;;;;;4.20;2.55;;;28.60;43.30;;;;;;7321178;19;20014;-79
2022/07/14 03:53:33;;;;;;;4.10;3.00;;;28.60;43.40;;;;;;7332592;19;20035;-79
2022/07/14 03:56:03;;;;;;;8.90;3.00;;;28.50;43.40;;;;;;7332580;19;20458;-79
2022/07/14 03:58:32;;;;;;;6.68;2.70;;;28.50;43.50;;;;;;7330127;19;20089;-79
2022/07/14 04:01:00;;;;;;;6.40;2.67;;;28.40;43.40;;;;;;7309670;19;20382;-79
2022/07/14 04:03:30;;;;;;;5.95;2.60;;;28.40;43.60;;;;;;7331432;19;20022;-79
2022/07/14 04:06:02;;;;;;;4.57;3.00;;;28.40;43.60;;;;;;7321100;19;20062;-78
2022/07/14 04:08:30;;;;;;;6.80;2.95;;;28.30;43.60;;;;;;7330833;19;20083;-78
2022/07/14 04:11:00;;;;;;;4.35;2.63;;;28.30;43.60;;;;;;7341770;19;20011;-80
2022/07/14 04:13:32;;;;;;;8.00;2.80;;;28.20;43.80;;;;;;7330725;19;20006;-80
2022/07/14 04:16:01;;;;;;;3.90;2.55;;;28.10;43.90;;;;;;7309333;19;20014;-79
2022/07/14 04:18:29;;;;;;;10.48;2.80;;;28.10;44.20;;;;;;7331517;19;20031;-81
2022/07/14 04:21:01;;;;;;;4.82;2.90;;;28.00;44.30;;;;;;7350584;19;20086;-80
2022/07/14 04:23:30;;;;;;;4.82;2.72;;;27.90;44.60;;;;;;7350480;19;20423;-79
2022/07/14 04:26:00;;;;;;;4.70;2.55;;;27.80;44.70;;;;;;7346351;19;20014;-80
2022/07/14 04:28:29;;;;;;;4.38;2.40;;;27.70;44.80;;;;;;7331383;19;20013;-79
2022/07/14 04:30:58;;;;;;;5.25;2.30;;;27.70;44.90;;;;;;7329016;19;20775;-79
2022/07/14 04:33:26;;;;;;;8.70;2.67;;;27.70;44.90;;;;;;7310750;19;20466;-79
2022/07/14 04:35:55;;;;;;;8.02;3.08;;;27.80;44.90;;;;;;7342305;19;20022;-79
2022/07/14 04:38:29;;;;;;;7.07;2.80;;;27.70;45.00;;;;;;7311412;19;20086;-80
2022/07/14 04:41:00;;;;;;;7.22;2.50;;;27.60;45.90;;;;;;7352912;19;20507;-79
2022/07/14 04:43:29;;;;;;;6.90;2.97;;;27.50;45.30;;;;;;7332082;19;20018;-79
2022/07/14 04:45:58;;;;;;;7.13;2.78;;;27.50;45.40;;;;;;7328286;19;20501;-79
2022/07/14 04:48:27;;;;;;;6.85;3.00;;;27.50;45.50;;;;;;7310468;19;20026;-79
2022/07/14 04:53:41;;;;;;;7.53;2.78;;;27.50;45.60;;;;;;7310244;19;20070;-79
2022/07/14 04:56:10;;;;;;;3.53;2.17;;;27.50;45.70;;;;;;7325598;19;20010;-79
2022/07/14 04:58:38;;;;;;;5.72;2.80;;;27.40;45.60;;;;;;7352386;19;20078;-80
2022/07/14 05:01:07;;;;;;;4.57;2.42;;;27.40;45.80;;;;;;7306170;19;20019;-80
2022/07/14 05:03:36;;;;;;;7.13;2.97;;;27.30;46.00;;;;;;7329364;19;20019;-80
2022/07/14 05:06:05;;;;;;;3.85;2.47;;;27.10;46.80;;;;;;7324285;19;20038;-80
2022/07/14 05:08:34;;;;;;;3.97;2.55;;;27.20;46.50;;;;;;7334559;19;20485;-79
2022/07/14 05:11:06;;;;;;;6.43;2.88;;;27.20;46.60;;;;;;7329756;19;20769;-80
2022/07/14 05:13:35;;;;;;;6.25;2.70;;;27.20;46.50;;;;;;7331207;19;20118;-80
2022/07/14 05:16:03;;;;;;;7.30;3.10;;;27.30;46.50;;;;;;7308088;19;20010;-80
2022/07/14 05:18:32;;;;;;;5.45;2.78;;;27.30;46.80;;;;;;7331971;19;20015;-80
2022/07/14 05:21:01;;;;;;;9.48;3.20;;;27.20;46.80;;;;;;7308831;19;20089;-79
2022/07/14 05:23:30;;;;;;;5.53;2.83;;;27.10;47.00;;;;;;7332012;19;20024;-80
2022/07/14 05:25:58;;;;;;;5.30;3.03;;;27.20;47.10;;;;;;7351152;19;20018;-81
2022/07/14 05:28:30;;;;;;;6.45;3.10;;;27.10;47.20;;;;;;7332316;19;21353;-80
2022/07/14 05:31:00;;;;;;;5.57;2.90;;;27.20;47.40;;;;;;7337797;19;20094;-80
2022/07/14 05:33:29;;;;;;;13.38;3.03;;;27.20;47.30;;;;;;7331690;19;20082;-80
2022/07/14 05:35:58;;;;;;;8.10;3.20;;;27.10;47.50;;;;;;7342478;19;20014;-80
2022/07/14 05:38:27;;;;;;;9.32;2.92;;;27.10;47.60;;;;;;7324905;19;20015;-80
2022/07/14 05:40:56;;;;;;;13.27;3.40;;;27.10;47.80;;;;;;7355135;19;20662;-80
2022/07/14 05:43:24;;;;;;;5.05;2.72;;;27.20;48.00;;;;;;7312093;19;20014;-80
2022/07/14 05:45:56;;;;;;;5.13;3.10;;;27.20;47.80;;;;;;7336606;19;20473;-80
2022/07/14 05:48:24;;;;;;;4.72;3.20;;;27.30;47.80;;;;;;7318352;19;20097;-80
2022/07/14 05:50:53;;;;;;;7.75;3.42;;;27.40;47.80;;;;;;7337631;19;20034;-82
2022/07/14 05:53:22;;;;;;;9.25;3.17;;;27.40;47.80;;;;;;7315347;19;20014;-82
2022/07/14 05:55:51;;;;;;;5.68;3.17;;;27.50;47.80;;;;;;7358545;19;20407;-81
2022/07/14 05:58:19;;;;;;;7.65;3.42;;;27.40;48.10;;;;;;7310497;19;20086;-81
2022/07/14 06:00:48;;;;;;;7.68;3.60;;;27.30;48.30;;;;;;7334191;19;20438;-81
2022/07/14 06:03:21;;;;;;;6.28;3.60;;;27.30;48.30;;;;;;7312521;19;20019;-82
2022/07/14 06:05:50;;;;;;;6.47;3.55;;;27.10;48.60;;;;;;7335059;19;20014;-81
2022/07/14 06:08:19;;;;;;;7.22;3.83;;;27.10;49.20;;;;;;7313144;19;20006;-82
2022/07/14 06:10:49;;;;;;;8.77;3.60;;;27.20;48.70;;;;;;7356402;19;20073;-82
2022/07/14 06:13:18;;;;;;;10.77;4.10;;;27.20;48.70;;;;;;7312393;19;20448;-81
2022/07/14 06:15:47;;;;;;;10.25;3.95;;;27.20;48.60;;;;;;7332714;19;20043;-81
2022/07/14 06:18:19;;;;;;;8.52;4.05;;;27.40;48.50;;;;;;7308792;19;20022;-81
2022/07/14 06:20:48;;;;;;;7.07;4.35;;;27.40;48.40;;;;;;7331194;19;20386;-79
2022/07/14 06:23:17;;;;;;;5.45;3.95;;;27.50;48.40;;;;;;7324893;19;20022;-80
2022/07/14 06:25:46;;;;;;;12.00;4.30;;;27.40;48.50;;;;;;7354186;19;20018;-79
2022/07/14 06:28:14;;;;;;;9.38;4.88;;;27.30;48.80;;;;;;7308382;19;20020;-79
2022/07/14 06:30:43;;;;;;;9.55;4.60;;;27.30;48.80;;;;;;7329434;19;20025;-80
2022/07/14 06:33:12;;;;;;;10.48;3.85;;;27.20;48.90;;;;;;7306192;19;20074;-80
2022/07/14 06:35:44;;;;;;;6.28;4.22;;;27.20;49.00;;;;;;7343715;19;20018;-80
2022/07/14 06:38:13;;;;;;;15.15;4.05;;;27.20;49.10;;;;;;7305563;19;20078;-80
2022/07/14 06:40:42;;;;;;;8.40;4.32;;;27.20;49.20;;;;;;7346935;19;20090;-79
2022/07/14 06:43:10;;;;;;;8.43;4.45;;;27.40;49.20;;;;;;7314959;19;20086;-80
2022/07/14 06:45:39;;;;;;;10.15;4.50;;;27.40;49.10;;;;;;7325957;19;20007;-80
2022/07/14 06:48:09;;;;;;;11.63;4.18;;;27.40;48.80;;;;;;7305611;19;20094;-80
2022/07/14 06:50:38;;;;;;;9.68;4.50;;;27.40;48.90;;;;;;7325502;19;20797;-80
2022/07/14 06:53:10;;;;;;;8.68;4.28;;;27.40;48.90;;;;;;7347764;19;20011;-80
2022/07/14 06:55:39;;;;;;;8.20;4.60;;;27.30;49.00;;;;;;7294488;19;20447;-79
2022/07/14 06:58:08;;;;;;;9.73;4.30;;;27.40;49.00;;;;;;7313989;19;20019;-80
2022/07/14 07:00:37;;;;;;;10.32;4.15;;;27.20;49.10;;;;;;7335531;19;20101;-79
2022/07/14 07:03:12;;;;;;;9.43;4.10;;;27.20;49.40;;;;;;7303960;19;20089;-80
2022/07/14 07:08:28;;;;;;;7.85;4.07;;;27.30;49.70;;;;;;7325625;19;20014;-80
2022/07/14 07:10:58;;;;;;;13.82;3.92;;;27.20;49.60;;;;;;7353316;19;20291;-80
2022/07/14 07:13:27;;;;;;;13.07;4.07;;;27.40;49.40;;;;;;7337570;19;20002;-80
2022/07/14 07:15:56;;;;;;;12.88;3.97;;;27.60;49.00;;;;;;7348350;19;20042;-80
2022/07/14 07:18:25;;;;;;;6.10;3.85;;;27.50;48.90;;;;;;7322545;19;20023;-80
2022/07/14 07:20:53;;;;;;;7.07;3.88;;;27.50;49.30;;;;;;7335726;19;20035;-80
2022/07/14 07:23:25;;;;;;;7.22;3.92;;;27.60;49.30;;;;;;7316145;19;20367;-80
2022/07/14 07:25:54;;;;;;;9.00;3.70;;;27.60;49.10;;;;;;7360368;19;20014;-80
2022/07/14 07:28:23;;;;;;;7.80;4.35;;;27.80;49.20;;;;;;7312430;19;20089;-80
2022/07/14 07:30:52;;;;;;;10.52;3.88;;;27.80;48.80;;;;;;7332215;19;20090;-80
2022/07/14 07:33:20;;;;;;;6.38;3.80;;;27.80;48.90;;;;;;7312875;19;20008;-80
2022/07/14 07:35:50;;;;;;;5.70;4.00;;;27.70;49.10;;;;;;7343369;19;20026;-81
2022/07/14 07:38:20;;;;;;;7.30;3.83;;;28.00;49.10;;;;;;7326591;19;20453;-80
2022/07/14 07:40:53;;;;;;;8.02;3.97;;;28.00;48.40;;;;;;7355911;19;20090;-80
2022/07/14 07:43:22;;;;;;;13.48;3.95;;;28.10;48.40;;;;;;7310961;19;20016;-80
2022/07/14 07:45:51;;;;;;;14.40;3.80;;;28.10;48.40;;;;;;7331779;19;20014;-80
2022/07/14 07:48:19;;;;;;;6.13;3.83;;;28.20;48.30;;;;;;7310079;19;20045;-80
2022/07/14 07:50:48;;;;;;;8.48;3.90;;;28.00;48.20;;;;;;7354319;19;20033;-81
2022/07/14 07:53:17;;;;;;;4.80;3.45;;;28.10;48.10;;;;;;7308928;19;20605;-80
2022/07/14 07:55:46;;;;;;;9.55;3.78;;;28.00;48.10;;;;;;7352782;19;20775;-79
2022/07/14 07:58:18;;;;;;;5.93;3.33;;;28.00;48.20;;;;;;7309763;19;20048;-80
2022/07/14 08:00:47;;;;;;;10.13;3.42;;;28.30;48.00;;;;;;7346747;19;20510;-80
2022/07/14 08:03:16;;;;;;;4.78;2.90;;;28.30;47.90;;;;;;7310499;19;20027;-80
2022/07/14 08:05:45;;;;;;;6.32;3.33;;;28.30;46.80;;;;;;7331788;19;20113;-80
2022/07/14 08:08:14;;;;;;;4.88;3.33;;;28.50;46.90;;;;;;7331578;19;20010;-80
2022/07/14 08:10:43;;;;;;;5.57;3.88;;;28.30;47.30;;;;;;7353241;19;20023;-80
2022/07/14 08:13:13;;;;;;;5.30;3.20;;;28.30;47.40;;;;;;7308323;19;20440;-80
2022/07/14 08:15:44;;;;;;;5.15;3.05;;;28.50;46.90;;;;;;7344378;19;20291;-85
2022/07/14 08:18:13;;;;;;;6.15;3.13;;;28.40;45.80;;;;;;7338468;19;20068;-78
2022/07/14 08:20:42;;;;;;;7.25;3.05;;;28.20;46.90;;;;;;7312034;19;20011;-87
2022/07/14 08:23:11;;;;;;;4.45;2.80;;;28.10;46.40;;;;;;7322859;19;20077;-80
2022/07/14 08:25:40;;;;;;;5.30;2.72;;;27.90;46.70;;;;;;7269679;19;20013;-82
2022/07/14 08:28:09;;;;;;;5.55;2.88;;;27.90;46.50;;;;;;7380054;19;20093;-85
2022/07/14 08:30:59;;;;;;;6.63;2.53;;;28.20;45.70;;;;;;7386451;19;20011;-91
2022/07/14 08:33:32;;;;;;;8.38;2.78;;;28.10;45.80;;;;;;7383953;19;20023;-91
2022/07/14 08:36:01;;;;;;;5.68;2.50;;;28.20;44.70;;;;;;7387149;19;20026;-86
2022/07/14 08:38:29;;;;;;;11.82;8.52;;;28.00;45.40;;;;;;7379844;19;20099;-80
2022/07/14 08:40:58;;;;;;;63.95;48.72;;;28.30;45.40;;;;;;7402099;19;20475;-80
2022/07/14 08:43:28;;;;;;;4.65;3.65;;;28.20;45.20;;;;;;7379490;19;20064;-80
2022/07/14 08:46:03;;;;;;;7.05;2.70;;;28.40;45.60;;;;;;7379178;19;20050;-80
2022/07/14 08:48:32;;;;;;;6.18;2.22;;;28.40;44.70;;;;;;7375097;19;20014;-80
2022/07/14 08:51:01;;;;;;;3.78;2.25;;;28.30;44.20;;;;;;7372798;19;20259;-79
2022/07/14 08:53:30;;;;;;;7.03;2.50;;;28.30;44.50;;;;;;7371228;19;20510;-80
2022/07/14 08:56:01;;;;;;;4.15;2.13;;;28.20;44.70;;;;;;7397326;19;20249;-80
2022/07/14 08:58:30;;;;;;;;;;;28.20;44.50;;;;;;7375188;19;20038;-80
2022/07/14 09:01:01;;;;;;;6.60;2.78;;;28.40;44.90;;;;;;7374277;19;19922;-79
2022/07/14 09:03:30;;;;;;;7.05;2.97;;;28.40;44.80;;;;;;7374217;19;20085;-79
2022/07/14 09:05:59;;;;;;;7.30;2.72;;;28.40;44.30;;;;;;7373349;19;20463;-79
2022/07/14 09:08:28;;;;;;;5.15;2.53;;;28.50;44.00;;;;;;7374486;19;20022;-79
2022/07/14 09:10:56;;;;;;;5.07;2.20;;;28.30;44.10;;;;;;7394875;19;20014;-79
2022/07/14 09:13:26;;;;;;;4.15;2.42;;;28.50;45.10;;;;;;7370482;19;20323;-80
2022/07/14 09:16:18;;;;;;;4.63;2.40;;;28.40;44.50;;;;;;7375328;19;20104;-80
2022/07/14 09:19:05;;;;;;;7.35;2.20;;;28.50;43.30;;;;;;7374831;19;20043;-80
2022/07/14 09:21:34;;;;;;;7.07;2.38;;;28.60;43.60;;;;;;7373510;19;20037;-81
2022/07/14 09:24:03;;;;;;;233.07;168.25;;;28.90;43.10;;;;;;7372451;19;20035;-80
2022/07/14 09:26:33;;;;;;;4.65;2.90;;;28.70;43.30;;;;;;7372929;19;20090;-79
2022/07/14 09:29:03;;;;;;;6.07;2.90;;;28.80;44.10;;;;;;7397226;19;20034;-80
2022/07/14 09:31:35;;;;;;;2.83;2.35;;;29.10;44.00;;;;;;7374925;19;20007;-79
2022/07/14 09:34:05;;;;;;;5.70;2.38;;;29.20;43.00;;;;;;7374252;19;20014;-79
2022/07/14 09:36:35;;;;;;;2.50;2.13;;;29.20;42.70;;;;;;7374520;19;20037;-79
2022/07/14 09:39:07;;;;;;;3.03;2.20;;;29.20;42.40;;;;;;7374796;19;20010;-79
2022/07/14 09:41:50;;;;;;;4.70;2.00;;;29.10;42.00;;;;;;7373439;19;20324;-79
2022/07/14 09:44:20;;;;;;;7.03;2.10;;;29.00;40.50;;;;;;7372066;19;20094;-79
2022/07/14 09:46:54;;;;;;;2.90;2.03;;;29.00;41.10;;;;;;7391035;19;20090;-79
2022/07/14 09:49:25;;;;;;;2.28;2.05;;;28.80;41.10;;;;;;7374826;19;20763;-78
2022/07/14 09:51:54;;;;;;;;;;;28.80;41.60;;;;;;7375916;19;20015;-79
2022/07/14 09:54:43;;;;;;;9.93;2.65;;;28.70;41.90;;;;;;7375139;19;20330;-78
2022/07/14 09:57:29;;;;;;;5.05;2.30;;;28.60;41.70;;;;;;7373935;19;20041;-78
2022/07/14 10:00:00;;;;;;;6.13;2.22;;;28.90;42.00;;;;;;7377187;19;20021;-79
2022/07/14 10:02:33;;;;;;;4.32;2.15;;;28.80;41.50;;;;;;7374986;19;20022;-79
2022/07/14 10:05:05;;;;;;;7.95;2.53;;;28.80;41.40;;;;;;7396988;19;20505;-79
2022/07/14 10:07:38;;;;;;;7.22;2.25;;;28.70;41.70;;;;;;7375295;19;20116;-79
2022/07/14 10:10:09;;;;;;;3.08;2.13;;;28.70;41.80;;;;;;7374805;19;20033;-79
2022/07/14 10:12:41;;;;;;;3.15;2.15;;;29.00;41.90;;;;;;7377348;19;20050;-79
2022/07/14 10:15:10;;;;;;;;;;;29.20;41.40;;;;;;7376405;19;20011;-79
2022/07/14 10:17:44;;;;;;;7.55;1.95;;;29.20;40.60;;;;;;7377099;19;19946;-80
2022/07/14 10:20:16;;;;;;;7.60;2.20;;;29.20;40.30;;;;;;7375865;19;20035;-80
2022/07/14 10:22:47;;;;;;;7.90;2.13;;;29.20;40.00;;;;;;7396633;19;20019;-76
2022/07/14 10:25:15;;;;;;;3.25;1.98;;;29.00;40.30;;;;;;7371377;19;20197;-80
2022/07/14 10:27:46;;;;;;;2.30;1.80;;;29.00;40.50;;;;;;7373388;19;20014;-77
2022/07/14 10:30:15;;;;;;;5.28;2.00;;;29.10;40.20;;;;;;7373862;19;20018;-77
2022/07/14 10:32:56;;;;;;;2.38;1.80;;;29.10;39.80;;;;;;7372176;19;20010;-77
2022/07/14 10:35:39;;;;;;;3.08;1.92;;;29.40;40.20;;;;;;7373634;19;20022;-79
2022/07/14 10:38:24;;;;;;;4.38;1.92;;;29.70;40.10;;;;;;7394396;19;20090;-78
2022/07/14 10:41:02;;;;;;;1.90;1.70;;;29.60;39.40;;;;;;7372186;19;20078;-78
2022/07/14 10:43:47;;;;;;;4.55;1.83;;;29.90;39.20;;;;;;7374347;19;20046;-79
2022/07/14 10:46:35;;;;;;;9.50;6.57;;;29.90;39.00;;;;;;7373557;19;20026;-78
2022/07/14 10:49:08;;;;;;;3.03;1.90;;;30.00;39.30;;;;;;7358304;19;20014;-77
2022/07/14 10:51:46;;;;;;;3.33;1.95;;;30.20;39.00;;;;;;7362866;19;20022;-77
2022/07/14 10:54:16;;;;;;;3.67;1.73;;;30.30;38.70;;;;;;7369724;19;20021;-77
2022/07/14 10:56:46;;;;;;;2.42;1.67;;;30.40;38.60;;;;;;7369233;19;20023;-77
2022/07/14 10:59:36;;;;;;;4.50;1.50;;;30.10;38.60;;;;;;7371818;19;20078;-77
2022/07/14 11:02:31;;;;;;;3.42;1.77;;;30.10;38.60;;;;;;7385901;19;20038;-76
2022/07/14 11:05:16;;;;;;;3.70;1.70;;;30.20;39.20;;;;;;7369766;19;20025;-76
2022/07/14 11:07:50;;;;;;;3.13;1.50;;;29.90;39.40;;;;;;7371102;19;20015;-76
2022/07/14 11:11:08;;;;;;;2.15;1.77;;;29.90;39.30;;;;;;7371319;19;20015;-76
2022/07/14 11:13:38;;;;;;;5.78;1.52;;;30.10;38.70;;;;;;7370534;19;20043;-76
2022/07/14 11:16:07;;;;;;;4.32;1.50;;;30.00;38.40;;;;;;7370570;19;20018;-77
2022/07/14 11:18:41;;;;;;;1.60;1.50;;;30.00;38.40;;;;;;7368307;19;20022;-77
2022/07/14 11:21:19;;;;;;;2.65;1.40;;;29.90;38.50;;;;;;7372217;19;20086;-76
2022/07/14 11:23:56;;;;;;;6.10;1.48;;;29.90;38.90;;;;;;7371119;19;20437;-79
2022/07/14 11:26:38;;;;;;;1.95;1.10;;;30.00;38.30;;;;;;7368525;19;20054;-76
2022/07/14 11:29:08;;;;;;;3.75;1.33;;;30.10;37.90;;;;;;7390932;19;20018;-76
2022/07/14 11:31:48;;;;;;;1.20;1.10;;;30.10;37.30;;;;;;7368254;19;20014;-76
2022/07/14 11:37:19;;;;;;;1.67;1.30;;;29.90;37.70;;;;;;7365530;19;20030;-76
2022/07/14 11:39:48;;;;;;;5.07;1.30;;;30.30;36.60;;;;;;7368464;19;20094;-77
2022/07/14 11:42:18;;;;;;;3.50;1.50;;;30.30;36.50;;;;;;7368036;19;20098;-76
2022/07/14 11:44:56;;;;;;;2.35;1.20;;;30.60;36.60;;;;;;7370421;19;20013;-77
2022/07/14 11:47:28;;;;;;;2.65;1.30;;;30.70;36.10;;;;;;7370815;19;20030;-76
2022/07/14 11:50:00;;;;;;;3.85;1.40;;;30.80;34.40;;;;;;7386071;19;20426;-76
2022/07/14 11:52:33;;;;;;;10.05;1.50;;;30.50;34.80;;;;;;7368361;19;20089;-76
2022/07/14 11:55:04;;;;;;;1.75;1.40;;;30.50;35.00;;;;;;7367225;19;20032;-75
2022/07/14 11:57:36;;;;;;;2.80;1.48;;;30.60;35.40;;;;;;7368018;19;20038;-76
2022/07/14 12:00:09;;;;;;;3.80;1.50;;;30.70;35.80;;;;;;7368277;19;20022;-76
2022/07/14 12:02:51;;;;;;;3.03;1.42;;;30.60;35.40;;;;;;7369156;19;20013;-76
2022/07/14 12:05:20;;;;;;;3.08;1.48;;;30.40;35.40;;;;;;7369668;19;20018;-76
2022/07/14 12:07:53;;;;;;;3.95;1.40;;;30.40;35.70;;;;;;7392498;19;20758;-77
2022/07/14 12:10:36;;;;;;;4.97;1.60;;;30.50;35.50;;;;;;7375690;19;20022;-77
2022/07/14 12:13:06;;;;;;;4.13;1.92;;;30.60;35.90;;;;;;7375656;19;20015;-77
2022/07/14 12:15:35;;;;;;;5.63;1.67;;;30.80;35.90;;;;;;7377573;19;20030;-77
2022/07/14 12:18:05;;;;;;;2.15;1.58;;;30.70;35.60;;;;;;7375749;19;20019;-78
2022/07/14 12:20:42;;;;;;;4.73;1.63;;;30.70;34.40;;;;;;7374154;19;20018;-77
2022/07/14 12:23:13;;;;;;;2.47;1.60;;;30.80;34.20;;;;;;7384111;19;20813;-77
2022/07/14 12:25:45;;;;;;;2.33;1.65;;;30.70;32.30;;;;;;7397463;19;20007;-77
2022/07/14 12:28:15;;;;;;;1.88;1.40;;;30.70;32.20;;;;;;7375499;19;20021;-77
2022/07/14 12:30:50;;;;;;;3.60;1.52;;;30.90;32.20;;;;;;7374922;19;20089;-78
2022/07/14 12:33:23;;;;;;;2.38;1.35;;;31.10;32.00;;;;;;7377204;19;25403;-82
2022/07/14 12:35:54;;;;;;;1.73;1.42;;;31.20;32.30;;;;;;7398978;19;20022;-78
2022/07/14 12:38:29;;;;;;;2.60;2.33;;;31.20;32.50;;;;;;7377676;19;20480;-81
2022/07/14 12:49:03;;;;;;;3.28;1.63;;;31.60;31.90;;;;;;7354148;19;20015;-83
2022/07/14 12:51:39;;;;;;;3.42;1.70;;;31.60;30.80;;;;;;7392082;19;20031;-79
2022/07/14 12:54:15;;;;;;;5.47;1.52;;;31.70;30.90;;;;;;7365210;19;20098;-78
2022/07/14 12:56:51;;;;;;;2.17;1.50;;;31.80;31.90;;;;;;7375974;19;20011;-77
2022/07/14 12:59:22;;;;;;;3.67;1.50;;;31.90;32.40;;;;;;7376039;19;20018;-78
2022/07/14 13:01:54;;;;;;;3.22;1.60;;;31.90;31.70;;;;;;7376041;19;20790;-77
2022/07/14 13:04:34;;;;;;;2.03;1.73;;;31.70;31.30;;;;;;7397758;19;20043;-78
2022/07/14 13:07:05;;;;;;;3.80;1.80;;;31.60;31.50;;;;;;7375223;19;20018;-78
2022/07/14 13:09:37;;;;;;;1.60;1.50;;;31.70;32.20;;;;;;7373901;19;20678;-77
2022/07/14 13:12:30;;;;;;;1.85;1.75;;;31.80;32.10;;;;;;7374588;19;20334;-77
2022/07/14 13:14:59;;;;;;;2.80;1.60;;;31.80;32.00;;;;;;7374724;19;20045;-78
2022/07/14 13:17:59;;;;;;;3.78;1.50;;;31.80;31.70;;;;;;7374914;19;20019;-78
2022/07/14 13:20:55;;;;;;;1.75;1.63;;;31.80;32.30;;;;;;7373457;19;20014;-77
2022/07/14 13:23:30;;;;;;;6.60;1.58;;;31.60;31.80;;;;;;7375106;19;20106;-78
2022/07/14 13:26:06;;;;;;;5.55;1.95;;;31.40;31.10;;;;;;7374145;19;20027;-78
2022/07/14 13:28:37;;;;;;;10.25;1.60;;;31.50;32.40;;;;;;7375641;19;20087;-78
2022/07/14 13:31:06;;;;;;;;;;;31.60;32.50;;;;;;7395218;19;20022;-78